Terminal Aerodrome Forecast
Issued by NWS

Home | Current Version | Previous Version | Text Only | Print | Product List | Glossary On
Versions: 1 2 3 4 5 6 7 8 9 10 11 12 13 14 15 16 17 18 19 20
519
FTUS42 KFFC 050540
TAFRYY
TAF
KRYY 050540Z 0506/0606 29008KT P6SM FEW100
     FM051000 27008KT P6SM SCT060
     FM051400 30015G25KT P6SM BKN050
     FM051800 31018G28KT P6SM BKN050
     FM060200 29012G20KT P6SM SCT060 SCT250
      AMD NOT SKED TIL 051200=

USA.gov is the U.S. government's official web portal to all federal, state and local government web resources and services.